createdAt,value
2017-08-27T00:00:00.752Z,1010.04
2017-08-27T00:01:00.732Z,1010.07
2017-08-27T00:02:00.711Z,1010.07
2017-08-27T00:03:00.690Z,1010.05
2017-08-27T00:04:00.671Z,1010
2017-08-27T00:05:00.652Z,1010.05
2017-08-27T00:06:00.631Z,1010.07
2017-08-27T00:07:00.613Z,1010.11
2017-08-27T00:08:00.594Z,1010.04
2017-08-27T00:09:00.570Z,1010.07
2017-08-27T00:10:00.549Z,1010.09
2017-08-27T00:11:00.537Z,1010.06
2017-08-27T00:12:00.511Z,1010.11
2017-08-27T00:13:00.490Z,1010.08
2017-08-27T00:14:00.472Z,1010.15
2017-08-27T00:15:00.451Z,1010.14
2017-08-27T00:16:00.429Z,1010.1
2017-08-27T00:17:00.411Z,1010.1
2017-08-27T00:18:00.391Z,1010.08
2017-08-27T00:19:00.369Z,1010.11
2017-08-27T00:20:00.600Z,1010.11
2017-08-27T00:21:00.329Z,1010.07
2017-08-27T00:22:00.311Z,1010.07
2017-08-27T00:23:00.289Z,1010.04
2017-08-27T00:24:00.267Z,1010.07
2017-08-27T00:25:00.253Z,1010.06
2017-08-27T00:26:00.229Z,1010.05
2017-08-27T00:27:00.206Z,1010.02
2017-08-27T00:28:00.188Z,1010.05
2017-08-27T00:29:00.173Z,1010.04
2017-08-27T00:30:00.147Z,1010.05
2017-08-27T00:31:00.126Z,1010.05
2017-08-27T00:32:00.105Z,1010.06
2017-08-27T00:33:00.092Z,1010.08
2017-08-27T00:34:00.066Z,1010.08
2017-08-27T00:35:00.048Z,1010.1
2017-08-27T00:36:00.028Z,1010.06
2017-08-27T00:37:00.007Z,1010.08
2017-08-27T00:37:59.986Z,1010.07
2017-08-27T00:38:59.966Z,1010.07
2017-08-27T00:39:59.947Z,1010.01
2017-08-27T00:40:59.927Z,1010.05
2017-08-27T00:41:59.906Z,1010.06
2017-08-27T00:42:59.885Z,1010.02
2017-08-27T00:43:59.916Z,1010.08
2017-08-27T00:44:59.850Z,1010.1
2017-08-27T00:45:59.825Z,1010.12
2017-08-27T00:46:59.805Z,1010.09
2017-08-27T00:47:59.787Z,1010.12
2017-08-27T00:48:59.767Z,1010.13
2017-08-27T00:49:59.745Z,1010.15
2017-08-27T00:50:59.723Z,1010.18
2017-08-27T00:51:59.705Z,1010.17
2017-08-27T00:52:59.687Z,1010.18
2017-08-27T00:53:59.666Z,1010.18
2017-08-27T00:54:59.645Z,1010.2
2017-08-27T00:55:59.627Z,1010.21
2017-08-27T00:56:59.605Z,1010.23
2017-08-27T00:57:59.585Z,1010.26
2017-08-27T00:58:59.614Z,1010.25
2017-08-27T00:59:59.539Z,1010.25
2017-08-27T01:00:59.522Z,1010.24
2017-08-27T01:01:59.505Z,1010.23
2017-08-27T01:02:59.481Z,1010.31
2017-08-27T01:03:59.464Z,1010.22
2017-08-27T01:04:59.442Z,1010.3
2017-08-27T01:05:59.423Z,1010.3
2017-08-27T01:06:59.401Z,1010.34
2017-08-27T01:07:59.386Z,1010.37
2017-08-27T01:08:59.362Z,1010.42
2017-08-27T01:09:59.343Z,1010.41
2017-08-27T01:10:59.322Z,1010.43
2017-08-27T01:11:59.302Z,1010.49
2017-08-27T01:12:59.283Z,1010.42
2017-08-27T01:13:59.260Z,1010.45
2017-08-27T01:14:59.245Z,1010.44
2017-08-27T01:15:59.220Z,1010.48
2017-08-27T01:16:59.200Z,1010.5
2017-08-27T01:17:59.186Z,1010.48
2017-08-27T01:18:59.160Z,1010.5
2017-08-27T01:19:59.140Z,1010.48
2017-08-27T01:20:59.124Z,1010.53
2017-08-27T01:21:59.101Z,1010.52
2017-08-27T01:22:59.089Z,1010.58
2017-08-27T01:23:59.060Z,1010.59
2017-08-27T01:24:59.040Z,1010.54
2017-08-27T01:25:59.015Z,1010.54
2017-08-27T01:26:58.998Z,1010.55
2017-08-27T01:27:58.981Z,1010.53
2017-08-27T01:28:58.958Z,1010.52
2017-08-27T01:29:58.934Z,1010.52
2017-08-27T01:30:58.917Z,1010.51
2017-08-27T01:31:58.896Z,1010.55
2017-08-27T01:32:58.875Z,1010.55
2017-08-27T01:33:58.855Z,1010.51
2017-08-27T01:34:58.836Z,1010.59
2017-08-27T01:35:58.821Z,1010.54
2017-08-27T01:36:58.797Z,1010.55
2017-08-27T01:37:58.775Z,1010.55
2017-08-27T01:38:58.757Z,1010.55
2017-08-27T01:39:58.732Z,1010.57
2017-08-27T01:40:58.715Z,1010.59
2017-08-27T01:41:58.692Z,1010.61
2017-08-27T01:42:58.673Z,1010.61
2017-08-27T01:43:58.653Z,1010.65
2017-08-27T01:44:58.632Z,1010.62
2017-08-27T01:45:58.611Z,1010.68
2017-08-27T01:46:58.591Z,1010.69
2017-08-27T01:47:58.570Z,1010.66
2017-08-27T01:48:58.548Z,1010.64
2017-08-27T01:49:58.529Z,1010.68
2017-08-27T01:50:58.509Z,1010.67
2017-08-27T01:51:58.490Z,1010.66
2017-08-27T01:52:58.472Z,1010.67
2017-08-27T01:53:58.449Z,1010.65
2017-08-27T01:54:58.431Z,1010.75
2017-08-27T01:55:58.406Z,1010.7
2017-08-27T01:56:58.387Z,1010.66
2017-08-27T01:57:58.368Z,1010.7
2017-08-27T01:58:58.345Z,1010.67
2017-08-27T01:59:58.326Z,1010.66
2017-08-27T02:00:58.605Z,1010.67
2017-08-27T02:01:58.283Z,1010.64
2017-08-27T02:02:58.263Z,1010.7
2017-08-27T02:03:58.243Z,1010.69
2017-08-27T02:04:58.224Z,1010.72
2017-08-27T02:05:58.203Z,1010.73
2017-08-27T02:06:58.182Z,1010.71
2017-08-27T02:07:58.165Z,1010.73
2017-08-27T02:08:58.141Z,1010.73
2017-08-27T02:09:58.121Z,1010.7
2017-08-27T02:10:58.100Z,1010.7
2017-08-27T02:11:58.079Z,1010.73
2017-08-27T02:12:58.058Z,1010.71
2017-08-27T02:13:58.039Z,1010.7
2017-08-27T02:14:58.017Z,1010.74
2017-08-27T02:15:57.996Z,1010.72
2017-08-27T02:17:03.984Z,1010.75
2017-08-27T02:17:57.960Z,1010.74
2017-08-27T02:18:57.935Z,1010.71
2017-08-27T02:19:57.916Z,1010.77
2017-08-27T02:20:57.894Z,1010.74
2017-08-27T02:21:57.874Z,1010.78
2017-08-27T02:22:57.906Z,1010.78
2017-08-27T02:23:57.833Z,1010.73
2017-08-27T02:24:57.816Z,1010.73
2017-08-27T02:25:57.792Z,1010.71
2017-08-27T02:26:57.772Z,1010.7
2017-08-27T02:27:57.754Z,1010.71
2017-08-27T02:28:57.727Z,1010.69
2017-08-27T02:29:57.710Z,1010.71
2017-08-27T02:30:57.688Z,1010.7
2017-08-27T02:31:57.670Z,1010.69
2017-08-27T02:32:57.648Z,1010.67
2017-08-27T02:33:57.629Z,1010.67
2017-08-27T02:34:57.607Z,1010.67
2017-08-27T02:35:57.592Z,1010.66
2017-08-27T02:36:57.565Z,1010.66
2017-08-27T02:37:57.545Z,1010.66
2017-08-27T02:38:57.525Z,1010.63
2017-08-27T02:39:57.503Z,1010.64
2017-08-27T02:40:57.484Z,1010.65
2017-08-27T02:41:57.463Z,1010.63
2017-08-27T02:42:57.442Z,1010.62
2017-08-27T02:43:57.471Z,1010.67
2017-08-27T02:44:57.399Z,1010.72
2017-08-27T02:45:57.381Z,1010.68
2017-08-27T02:46:57.361Z,1010.74
2017-08-27T02:47:57.339Z,1010.72
2017-08-27T02:48:57.322Z,1010.7
2017-08-27T02:49:57.296Z,1010.66
2017-08-27T02:50:57.277Z,1010.68
2017-08-27T02:51:57.256Z,1010.7
2017-08-27T02:52:57.236Z,1010.66
2017-08-27T02:53:57.215Z,1010.7
2017-08-27T02:54:57.195Z,1010.69
2017-08-27T02:55:57.181Z,1010.75
2017-08-27T02:56:57.153Z,1010.67
2017-08-27T02:57:57.137Z,1010.68
2017-08-27T02:58:57.112Z,1010.68
2017-08-27T02:59:57.089Z,1010.66
2017-08-27T03:00:57.122Z,1010.69
2017-08-27T03:01:57.049Z,1010.66
2017-08-27T03:02:57.029Z,1010.66
2017-08-27T03:03:57.008Z,1010.66
2017-08-27T03:04:56.987Z,1010.68
2017-08-27T03:05:56.975Z,1010.7
2017-08-27T03:06:56.946Z,1010.73
2017-08-27T03:07:56.926Z,1010.69
2017-08-27T03:08:56.904Z,1010.7
2017-08-27T03:09:56.882Z,1010.75
2017-08-27T03:10:56.864Z,1010.72
2017-08-27T03:11:56.841Z,1010.75
2017-08-27T03:12:56.821Z,1010.74
2017-08-27T03:13:56.800Z,1010.82
2017-08-27T03:14:56.779Z,1010.79
2017-08-27T03:15:56.762Z,1010.8
2017-08-27T03:16:56.738Z,1010.81
2017-08-27T03:17:56.719Z,1010.82
2017-08-27T03:18:56.696Z,1010.84
2017-08-27T03:19:56.677Z,1010.83
2017-08-27T03:20:56.654Z,1010.88
2017-08-27T03:21:56.634Z,1010.87
2017-08-27T03:22:56.613Z,1010.86
2017-08-27T03:23:56.591Z,1010.91
2017-08-27T03:24:56.569Z,1010.91
2017-08-27T03:25:56.549Z,1010.88
2017-08-27T03:26:56.528Z,1010.92
2017-08-27T03:27:56.509Z,1010.91
2017-08-27T03:28:56.488Z,1010.91
2017-08-27T03:29:56.467Z,1010.93
2017-08-27T03:30:56.450Z,1010.91
2017-08-27T03:31:56.424Z,1010.94
2017-08-27T03:32:56.405Z,1010.95
2017-08-27T03:33:56.381Z,1010.91
2017-08-27T03:34:56.363Z,1010.87
2017-08-27T03:35:56.341Z,1010.87
2017-08-27T03:36:56.320Z,1010.9
2017-08-27T03:37:56.298Z,1010.9
2017-08-27T03:38:56.278Z,1010.87
2017-08-27T03:39:56.261Z,1010.89
2017-08-27T03:40:56.234Z,1010.89
2017-08-27T03:41:56.215Z,1010.88
2017-08-27T03:42:56.194Z,1010.9
2017-08-27T03:43:56.173Z,1010.91
2017-08-27T03:44:56.153Z,1010.91
2017-08-27T03:45:56.182Z,1010.86
2017-08-27T03:46:56.110Z,1010.9
2017-08-27T03:47:56.088Z,1010.88
2017-08-27T03:48:56.067Z,1010.93
2017-08-27T03:49:56.048Z,1010.93
2017-08-27T03:50:56.035Z,1010.92
2017-08-27T03:51:56.006Z,1010.97
2017-08-27T03:52:55.989Z,1010.96
2017-08-27T03:53:55.963Z,1010.98
2017-08-27T03:54:55.942Z,1011.01
2017-08-27T03:55:55.920Z,1010.99
2017-08-27T03:56:55.899Z,1010.97
2017-08-27T03:57:55.880Z,1010.95
2017-08-27T03:58:55.857Z,1010.99
2017-08-27T03:59:55.840Z,1010.97
2017-08-27T04:00:55.817Z,1010.99
2017-08-27T04:01:55.795Z,1011
2017-08-27T04:02:55.774Z,1011.04
2017-08-27T04:03:55.753Z,1011.06
2017-08-27T04:04:55.735Z,1011.02
2017-08-27T04:05:55.715Z,1011.04
2017-08-27T04:06:55.691Z,1011.02
2017-08-27T04:07:55.670Z,1011.06
2017-08-27T04:08:55.645Z,1010.99
2017-08-27T04:09:55.629Z,1011.05
2017-08-27T04:10:55.610Z,1011.02
2017-08-27T04:11:55.587Z,1011.06
2017-08-27T04:12:55.569Z,1011.01
2017-08-27T04:13:55.545Z,1011.03
2017-08-27T04:14:55.524Z,1011.04
2017-08-27T04:15:55.502Z,1011.05
2017-08-27T04:16:55.479Z,1011.09
2017-08-27T04:17:55.460Z,1011.1
2017-08-27T04:18:55.438Z,1011.12
2017-08-27T04:19:55.420Z,1011.08
2017-08-27T04:20:55.400Z,1011.13
2017-08-27T04:21:55.375Z,1011.16
2017-08-27T04:22:55.353Z,1011.12
2017-08-27T04:23:55.334Z,1011.18
2017-08-27T04:24:55.311Z,1011.15
2017-08-27T04:25:55.290Z,1011.13
2017-08-27T04:26:55.321Z,1011.15
2017-08-27T04:27:55.248Z,1011.16
2017-08-27T04:28:55.228Z,1011.18
2017-08-27T04:29:55.207Z,1011.16
2017-08-27T04:30:55.186Z,1011.15
2017-08-27T04:31:55.165Z,1011.18
2017-08-27T04:32:55.144Z,1011.2
2017-08-27T04:33:55.121Z,1011.17
2017-08-27T04:34:55.103Z,1011.22
2017-08-27T04:35:55.080Z,1011.19
2017-08-27T04:36:55.063Z,1011.22
2017-08-27T04:37:55.040Z,1011.22
2017-08-27T04:38:55.017Z,1011.17
2017-08-27T04:39:54.995Z,1011.25
2017-08-27T04:40:54.976Z,1011.2
2017-08-27T04:41:54.957Z,1011.26
2017-08-27T04:42:54.937Z,1011.2
2017-08-27T04:43:54.912Z,1011.24
2017-08-27T04:44:54.891Z,1011.24
2017-08-27T04:45:54.870Z,1011.25
2017-08-27T04:46:54.849Z,1011.24
2017-08-27T04:47:54.826Z,1011.23
2017-08-27T04:48:54.806Z,1011.3
2017-08-27T04:49:54.787Z,1011.3
2017-08-27T04:50:54.764Z,1011.32
2017-08-27T04:51:54.744Z,1011.36
2017-08-27T04:52:54.728Z,1011.32
2017-08-27T04:53:54.702Z,1011.3
2017-08-27T04:54:54.681Z,1011.37
2017-08-27T04:55:54.660Z,1011.32
2017-08-27T04:56:54.644Z,1011.35
2017-08-27T04:57:54.617Z,1011.36
2017-08-27T04:58:54.598Z,1011.35
2017-08-27T04:59:54.578Z,1011.38
2017-08-27T05:00:54.553Z,1011.45
2017-08-27T05:01:54.539Z,1011.39
2017-08-27T05:02:54.513Z,1011.37
2017-08-27T05:03:54.492Z,1011.37
2017-08-27T05:04:54.469Z,1011.39
2017-08-27T05:05:54.449Z,1011.35
2017-08-27T05:06:54.432Z,1011.38
2017-08-27T05:07:54.407Z,1011.35
2017-08-27T05:08:54.388Z,1011.41
2017-08-27T05:09:54.365Z,1011.42
2017-08-27T05:10:54.344Z,1011.45
2017-08-27T05:11:54.322Z,1011.47
2017-08-27T05:12:54.305Z,1011.49
2017-08-27T05:13:54.281Z,1011.48
2017-08-27T05:14:54.316Z,1011.48
2017-08-27T05:15:54.239Z,1011.5
2017-08-27T05:16:54.218Z,1011.5
2017-08-27T05:17:54.199Z,1011.49
2017-08-27T05:18:54.181Z,1011.53
2017-08-27T05:19:54.158Z,1011.51
2017-08-27T05:20:54.134Z,1011.55
2017-08-27T05:21:54.114Z,1011.55
2017-08-27T05:22:54.089Z,1011.58
2017-08-27T05:23:54.072Z,1011.59
2017-08-27T05:24:54.051Z,1011.59
2017-08-27T05:25:54.033Z,1011.55
2017-08-27T05:26:54.010Z,1011.56
2017-08-27T05:27:53.990Z,1011.58
2017-08-27T05:28:53.970Z,1011.58
2017-08-27T05:29:53.950Z,1011.65
2017-08-27T05:30:53.929Z,1011.67
2017-08-27T05:31:53.909Z,1011.64
2017-08-27T05:32:53.889Z,1011.64
2017-08-27T05:33:53.868Z,1011.59
2017-08-27T05:34:53.850Z,1011.65
2017-08-27T05:35:53.830Z,1011.66
2017-08-27T05:36:53.808Z,1011.65
2017-08-27T05:37:53.787Z,1011.67
2017-08-27T05:38:53.770Z,1011.7
2017-08-27T05:39:53.750Z,1011.66
2017-08-27T05:40:53.733Z,1011.69
2017-08-27T05:41:53.710Z,1011.69
2017-08-27T05:42:53.689Z,1011.69
2017-08-27T05:43:53.672Z,1011.69
2017-08-27T05:44:53.651Z,1011.71
2017-08-27T05:45:53.630Z,1011.7
2017-08-27T05:46:53.612Z,1011.7
2017-08-27T05:47:53.591Z,1011.72
2017-08-27T05:48:53.569Z,1011.69
2017-08-27T05:49:53.552Z,1011.67
2017-08-27T05:50:53.535Z,1011.65
2017-08-27T05:51:53.516Z,1011.69
2017-08-27T05:52:53.490Z,1011.69
2017-08-27T05:53:53.472Z,1011.67
2017-08-27T05:54:53.506Z,1011.65
2017-08-27T05:55:53.429Z,1011.68
2017-08-27T05:56:53.412Z,1011.68
2017-08-27T05:57:53.392Z,1011.67
2017-08-27T05:58:53.374Z,1011.73
2017-08-27T05:59:53.356Z,1011.74
2017-08-27T06:00:53.335Z,1011.77
2017-08-27T06:01:53.315Z,1011.73
2017-08-27T06:02:53.299Z,1011.78
2017-08-27T06:03:53.280Z,1011.79
2017-08-27T06:04:53.260Z,1011.77
2017-08-27T06:05:53.242Z,1011.78
2017-08-27T06:06:53.271Z,1011.79
2017-08-27T06:07:53.202Z,1011.76
2017-08-27T06:08:53.185Z,1011.74
2017-08-27T06:09:53.166Z,1011.74
2017-08-27T06:10:53.147Z,1011.77
2017-08-27T06:11:53.129Z,1011.75
2017-08-27T06:12:53.113Z,1011.81
2017-08-27T06:13:53.091Z,1011.82
2017-08-27T06:14:53.074Z,1011.85
2017-08-27T06:15:53.057Z,1011.83
2017-08-27T06:16:53.040Z,1011.88
2017-08-27T06:17:53.020Z,1011.87
2017-08-27T06:18:53.005Z,1011.9
2017-08-27T06:19:52.988Z,1011.83
2017-08-27T06:20:52.968Z,1011.85
2017-08-27T06:21:52.948Z,1011.84
2017-08-27T06:22:52.980Z,1011.88
2017-08-27T06:23:52.919Z,1011.86
2017-08-27T06:24:52.903Z,1011.88
2017-08-27T06:25:52.883Z,1011.93
2017-08-27T06:26:52.865Z,1011.9
2017-08-27T06:27:52.851Z,1011.88
2017-08-27T06:28:52.833Z,1011.91
2017-08-27T06:29:52.816Z,1011.91
2017-08-27T06:30:52.798Z,1011.97
2017-08-27T06:31:52.780Z,1011.94
2017-08-27T06:32:52.766Z,1011.95
2017-08-27T06:33:52.749Z,1011.96
2017-08-27T06:34:52.733Z,1011.97
2017-08-27T06:35:52.716Z,1011.99
2017-08-27T06:36:52.697Z,1011.98
2017-08-27T06:37:52.684Z,1012
2017-08-27T06:38:52.670Z,1012.03
2017-08-27T06:39:52.651Z,1012.04
2017-08-27T06:40:52.636Z,1012.09
2017-08-27T06:41:52.619Z,1012.03
2017-08-27T06:42:52.606Z,1012.04
2017-08-27T06:43:52.588Z,1012.05
2017-08-27T06:44:52.577Z,1012.06
2017-08-27T06:45:52.556Z,1012.08
2017-08-27T06:46:52.541Z,1012.06
2017-08-27T06:47:52.526Z,1012.09
2017-08-27T06:48:52.510Z,1012.08
2017-08-27T06:49:52.498Z,1012.09
2017-08-27T06:50:52.479Z,1012.11
2017-08-27T06:51:52.463Z,1012.14
2017-08-27T06:52:52.447Z,1012.13
2017-08-27T06:53:52.433Z,1012.17
2017-08-27T06:54:52.417Z,1012.21
2017-08-27T06:55:52.401Z,1012.21
2017-08-27T06:56:52.387Z,1012.2
2017-08-27T06:57:52.370Z,1012.25
2017-08-27T06:58:52.354Z,1012.25
2017-08-27T06:59:52.342Z,1012.24
2017-08-27T07:00:52.326Z,1012.29
2017-08-27T07:01:52.310Z,1012.29
2017-08-27T07:02:52.295Z,1012.3
2017-08-27T07:03:52.282Z,1012.32
2017-08-27T07:04:52.265Z,1012.34
2017-08-27T07:05:52.251Z,1012.33
2017-08-27T07:06:52.233Z,1012.37
2017-08-27T07:07:52.226Z,1012.33
2017-08-27T07:08:52.207Z,1012.37
2017-08-27T07:09:52.190Z,1012.36
2017-08-27T07:10:52.178Z,1012.35
2017-08-27T07:11:52.165Z,1012.37
2017-08-27T07:12:52.154Z,1012.36
2017-08-27T07:13:52.136Z,1012.34
2017-08-27T07:14:52.124Z,1012.37
2017-08-27T07:15:52.109Z,1012.36
2017-08-27T07:16:52.095Z,1012.42
2017-08-27T07:17:52.082Z,1012.4
2017-08-27T07:18:52.068Z,1012.4
2017-08-27T07:19:52.063Z,1012.45
2017-08-27T07:20:52.047Z,1012.49
2017-08-27T07:21:52.030Z,1012.47
2017-08-27T07:22:52.013Z,1012.51
2017-08-27T07:23:52.001Z,1012.48
2017-08-27T07:24:51.982Z,1012.51
2017-08-27T07:25:51.974Z,1012.53
2017-08-27T07:26:51.961Z,1012.53
2017-08-27T07:27:51.947Z,1012.57
2017-08-27T07:28:51.937Z,1012.6
2017-08-27T07:29:51.923Z,1012.61
2017-08-27T07:30:51.909Z,1012.64
2017-08-27T07:31:51.900Z,1012.64
2017-08-27T07:32:51.882Z,1012.63
2017-08-27T07:33:51.871Z,1012.67
2017-08-27T07:34:51.857Z,1012.74
2017-08-27T07:35:51.845Z,1012.7
2017-08-27T07:36:51.832Z,1012.72
2017-08-27T07:37:51.822Z,1012.75
2017-08-27T07:38:51.806Z,1012.74
2017-08-27T07:39:51.800Z,1012.75
2017-08-27T07:40:51.787Z,1012.76
2017-08-27T07:41:51.769Z,1012.78
2017-08-27T07:42:51.757Z,1012.74
2017-08-27T07:43:51.746Z,1012.78
2017-08-27T07:44:51.734Z,1012.74
2017-08-27T07:45:51.721Z,1012.76
2017-08-27T07:46:51.710Z,1012.74
2017-08-27T07:47:51.699Z,1012.78
2017-08-27T07:48:51.687Z,1012.83
2017-08-27T07:49:51.672Z,1012.8
2017-08-27T07:50:51.711Z,1012.83
2017-08-27T07:51:51.651Z,1012.84
2017-08-27T07:52:51.639Z,1012.88
2017-08-27T07:53:51.626Z,1012.88
2017-08-27T07:54:51.664Z,1012.9
2017-08-27T07:55:51.603Z,1012.9
2017-08-27T07:56:51.592Z,1012.91
2017-08-27T07:57:51.589Z,1012.94
2017-08-27T07:58:51.573Z,1012.93
2017-08-27T07:59:51.561Z,1012.94
2017-08-27T08:00:51.553Z,1012.95
2017-08-27T08:01:51.536Z,1012.93
2017-08-27T08:02:51.532Z,1012.94
2017-08-27T08:03:51.515Z,1012.89
2017-08-27T08:04:51.505Z,1012.91
2017-08-27T08:05:51.493Z,1012.9
2017-08-27T08:06:51.481Z,1012.89
2017-08-27T08:07:51.474Z,1012.91
2017-08-27T08:08:51.466Z,1012.86
2017-08-27T08:09:51.450Z,1012.88
2017-08-27T08:10:51.444Z,1012.89
2017-08-27T08:11:51.430Z,1012.95
2017-08-27T08:12:51.421Z,1012.94
2017-08-27T08:13:51.409Z,1012.97
2017-08-27T08:14:51.398Z,1012.99
2017-08-27T08:15:51.389Z,1012.98
2017-08-27T08:16:51.375Z,1012.98
2017-08-27T08:17:51.369Z,1012.98
2017-08-27T08:18:51.355Z,1013.03
2017-08-27T08:19:51.348Z,1013.03
2017-08-27T08:20:51.336Z,1013.02
2017-08-27T08:21:51.323Z,1013.08
2017-08-27T08:22:51.314Z,1013.09
2017-08-27T08:23:51.305Z,1013.1
2017-08-27T08:24:51.292Z,1013.11
2017-08-27T08:25:51.285Z,1013.14
2017-08-27T08:26:51.274Z,1013.15
2017-08-27T08:27:51.264Z,1013.13
2017-08-27T08:28:51.257Z,1013.1
2017-08-27T08:29:51.249Z,1013.13
2017-08-27T08:30:51.242Z,1013.16
2017-08-27T08:31:51.235Z,1013.16
2017-08-27T08:32:51.219Z,1013.17
2017-08-27T08:33:51.208Z,1013.2
2017-08-27T08:34:51.208Z,1013.13
2017-08-27T08:35:51.192Z,1013.15
2017-08-27T08:36:51.183Z,1013.2
2017-08-27T08:37:51.176Z,1013.17
2017-08-27T08:38:51.166Z,1013.22
2017-08-27T08:39:51.160Z,1013.19
2017-08-27T08:40:51.148Z,1013.2
2017-08-27T08:41:51.139Z,1013.22
2017-08-27T08:42:51.130Z,1013.32
2017-08-27T08:43:51.121Z,1013.29
2017-08-27T08:44:51.116Z,1013.28
2017-08-27T08:45:51.102Z,1013.26
2017-08-27T08:46:51.094Z,1013.27
2017-08-27T08:47:51.087Z,1013.23
2017-08-27T08:48:51.076Z,1013.25
2017-08-27T08:49:51.065Z,1013.2
2017-08-27T08:50:51.056Z,1013.24
2017-08-27T08:51:51.047Z,1013.24
2017-08-27T08:52:51.044Z,1013.24
2017-08-27T08:53:51.033Z,1013.29
2017-08-27T08:54:51.020Z,1013.3
2017-08-27T08:55:51.014Z,1013.32
2017-08-27T08:56:51.010Z,1013.32
2017-08-27T08:57:50.994Z,1013.25
2017-08-27T08:58:50.984Z,1013.28
2017-08-27T08:59:50.975Z,1013.25
2017-08-27T09:00:50.967Z,1013.26
2017-08-27T09:01:50.958Z,1013.28
2017-08-27T09:02:50.948Z,1013.28
2017-08-27T09:03:50.938Z,1013.27
2017-08-27T09:04:50.929Z,1013.3
2017-08-27T09:05:50.922Z,1013.23
2017-08-27T09:06:50.909Z,1013.22
2017-08-27T09:07:50.902Z,1013.25
2017-08-27T09:08:50.890Z,1013.2
2017-08-27T09:09:50.881Z,1013.22
2017-08-27T09:10:50.873Z,1013.21
2017-08-27T09:11:50.865Z,1013.26
2017-08-27T09:12:50.858Z,1013.27
2017-08-27T09:13:50.845Z,1013.25
2017-08-27T09:14:50.833Z,1013.26
2017-08-27T09:15:50.824Z,1013.23
2017-08-27T09:16:50.813Z,1013.25
2017-08-27T09:17:50.803Z,1013.26
2017-08-27T09:18:50.797Z,1013.22
2017-08-27T09:19:50.785Z,1013.22
2017-08-27T09:20:50.778Z,1013.2
2017-08-27T09:21:50.767Z,1013.24
2017-08-27T09:22:50.761Z,1013.27
2017-08-27T09:23:50.751Z,1013.25
2017-08-27T09:24:50.741Z,1013.26
2017-08-27T09:25:50.732Z,1013.28
2017-08-27T09:26:50.723Z,1013.3
2017-08-27T09:27:50.712Z,1013.33
2017-08-27T09:28:50.708Z,1013.28
2017-08-27T09:29:50.699Z,1013.29
2017-08-27T09:30:50.692Z,1013.28
2017-08-27T09:31:50.679Z,1013.3
2017-08-27T09:32:50.671Z,1013.27
2017-08-27T09:33:50.663Z,1013.31
2017-08-27T09:34:50.656Z,1013.34
2017-08-27T09:35:50.649Z,1013.32
2017-08-27T09:36:50.640Z,1013.33
2017-08-27T09:37:50.630Z,1013.3
2017-08-27T09:38:50.620Z,1013.27
2017-08-27T09:39:50.615Z,1013.32
2017-08-27T09:40:50.604Z,1013.28
2017-08-27T09:41:50.597Z,1013.36
2017-08-27T09:42:50.838Z,1013.3
2017-08-27T09:43:50.579Z,1013.35
2017-08-27T09:44:50.568Z,1013.3
2017-08-27T09:45:50.557Z,1013.34
2017-08-27T09:46:50.548Z,1013.33
2017-08-27T09:47:50.538Z,1013.34
2017-08-27T09:48:50.532Z,1013.36
2017-08-27T09:49:50.519Z,1013.38
2017-08-27T09:50:50.512Z,1013.38
2017-08-27T09:51:50.500Z,1013.4
2017-08-27T09:52:50.489Z,1013.34
2017-08-27T09:53:50.491Z,1013.41
2017-08-27T09:54:50.467Z,1013.42
2017-08-27T09:55:50.457Z,1013.42
2017-08-27T09:56:50.746Z,1013.4
2017-08-27T09:57:50.437Z,1013.37
2017-08-27T09:58:50.428Z,1013.37
2017-08-27T09:59:50.425Z,1013.32
2017-08-27T10:00:50.407Z,1013.39
2017-08-27T10:01:50.398Z,1013.38
2017-08-27T10:02:50.389Z,1013.37
2017-08-27T10:03:50.378Z,1013.38
2017-08-27T10:04:50.366Z,1013.4
2017-08-27T10:05:50.358Z,1013.35
2017-08-27T10:06:50.356Z,1013.38
2017-08-27T10:07:50.345Z,1013.39
2017-08-27T10:08:50.329Z,1013.43
2017-08-27T10:09:50.318Z,1013.4
2017-08-27T10:10:50.318Z,1013.35
2017-08-27T10:11:50.300Z,1013.43
2017-08-27T10:12:50.289Z,1013.34
2017-08-27T10:13:50.282Z,1013.44
2017-08-27T10:14:50.272Z,1013.4
2017-08-27T10:15:50.261Z,1013.41
2017-08-27T10:16:50.254Z,1013.43
2017-08-27T10:17:50.246Z,1013.35
2017-08-27T10:18:50.243Z,1013.41
2017-08-27T10:19:50.225Z,1013.37
2017-08-27T10:20:50.225Z,1013.27
2017-08-27T10:21:50.210Z,1013.32
2017-08-27T10:22:50.202Z,1013.32
2017-08-27T10:23:50.193Z,1013.4
2017-08-27T10:24:50.184Z,1013.39
2017-08-27T10:25:50.175Z,1013.41
2017-08-27T10:26:50.168Z,1013.36
2017-08-27T10:27:50.158Z,1013.36
2017-08-27T10:28:50.153Z,1013.35
2017-08-27T10:29:50.138Z,1013.42
2017-08-27T10:30:50.132Z,1013.46
2017-08-27T10:31:50.119Z,1013.51
2017-08-27T10:32:50.111Z,1013.47
2017-08-27T10:33:50.099Z,1013.43
2017-08-27T10:34:50.097Z,1013.45
2017-08-27T10:35:50.081Z,1013.43
2017-08-27T10:36:50.119Z,1013.39
2017-08-27T10:37:50.057Z,1013.46
2017-08-27T10:38:50.050Z,1013.46
2017-08-27T10:39:50.033Z,1013.47
2017-08-27T10:40:50.020Z,1013.49
2017-08-27T10:41:50.011Z,1013.5
2017-08-27T10:42:49.994Z,1013.44
2017-08-27T10:43:49.981Z,1013.43
2017-08-27T10:44:49.966Z,1013.46
2017-08-27T10:45:49.952Z,1013.42
2017-08-27T10:46:49.938Z,1013.41
2017-08-27T10:47:49.925Z,1013.43
2017-08-27T10:48:49.910Z,1013.46
2017-08-27T10:49:49.896Z,1013.41
2017-08-27T10:50:49.883Z,1013.41
2017-08-27T10:51:49.864Z,1013.4
2017-08-27T10:52:49.853Z,1013.36
2017-08-27T10:53:49.835Z,1013.4
2017-08-27T10:54:49.822Z,1013.42
2017-08-27T10:55:49.804Z,1013.42
2017-08-27T10:56:49.789Z,1013.38
2017-08-27T10:57:49.778Z,1013.36
2017-08-27T10:58:49.759Z,1013.39
2017-08-27T10:59:49.740Z,1013.38
2017-08-27T11:00:49.726Z,1013.34
2017-08-27T11:01:49.711Z,1013.35
2017-08-27T11:02:49.696Z,1013.33
2017-08-27T11:03:49.682Z,1013.36
2017-08-27T11:04:49.661Z,1013.33
2017-08-27T11:05:49.649Z,1013.36
2017-08-27T11:06:49.631Z,1013.34
2017-08-27T11:07:49.614Z,1013.34
2017-08-27T11:08:49.597Z,1013.4
2017-08-27T11:09:49.579Z,1013.34
2017-08-27T11:10:49.563Z,1013.35
2017-08-27T11:11:49.545Z,1013.36
2017-08-27T11:12:49.530Z,1013.35
2017-08-27T11:13:49.510Z,1013.34
2017-08-27T11:14:49.499Z,1013.34
2017-08-27T11:15:49.478Z,1013.33
2017-08-27T11:16:49.465Z,1013.3
2017-08-27T11:17:49.444Z,1013.39
2017-08-27T11:18:49.426Z,1013.27
2017-08-27T11:19:49.409Z,1013.26
2017-08-27T11:20:49.392Z,1013.27
2017-08-27T11:21:49.377Z,1013.3
2017-08-27T11:22:49.358Z,1013.38
2017-08-27T11:23:49.341Z,1013.29
2017-08-27T11:24:49.327Z,1013.36
2017-08-27T11:25:49.306Z,1013.34
2017-08-27T11:26:49.293Z,1013.29
2017-08-27T11:27:49.280Z,1013.28
2017-08-27T11:28:49.255Z,1013.3
2017-08-27T11:29:49.241Z,1013.31
2017-08-27T11:30:49.217Z,1013.3
2017-08-27T11:31:49.202Z,1013.29
2017-08-27T11:32:49.191Z,1013.24
2017-08-27T11:33:49.170Z,1013.23
2017-08-27T11:34:49.152Z,1013.22
2017-08-27T11:35:49.134Z,1013.17
2017-08-27T11:36:49.118Z,1013.19
2017-08-27T11:37:49.099Z,1013.2
2017-08-27T11:38:49.082Z,1013.21
2017-08-27T11:39:49.057Z,1013.2
2017-08-27T11:40:49.096Z,1013.19
2017-08-27T11:41:49.030Z,1013.18
2017-08-27T11:42:49.020Z,1013.17
2017-08-27T11:43:48.994Z,1013.16
2017-08-27T11:44:48.981Z,1013.15
2017-08-27T11:45:48.962Z,1013.12
2017-08-27T11:46:48.946Z,1013.19
2017-08-27T11:47:48.977Z,1013.1
2017-08-27T11:48:48.912Z,1013.14
2017-08-27T11:49:48.894Z,1013.13
2017-08-27T11:50:48.879Z,1013.16
2017-08-27T11:51:48.864Z,1013.15
2017-08-27T11:52:48.839Z,1013.15
2017-08-27T11:53:48.816Z,1013.15
2017-08-27T11:54:48.805Z,1013.12
2017-08-27T11:55:48.786Z,1013.1
2017-08-27T11:56:48.771Z,1013.1
2017-08-27T11:57:48.751Z,1013.16
2017-08-27T11:58:48.732Z,1013.13
2017-08-27T11:59:48.722Z,1013.12
2017-08-27T12:00:48.697Z,1013.08
2017-08-27T12:01:48.680Z,1013.1
2017-08-27T12:02:48.665Z,1013.1
2017-08-27T12:03:48.647Z,1013.13
2017-08-27T12:04:48.628Z,1013.11
2017-08-27T12:05:48.609Z,1013.11
2017-08-27T12:06:48.594Z,1013.1
2017-08-27T12:07:48.581Z,1013.06